Time;durP1;ratioP1;P1;durP2;ratioP2;P2;SDS_P1;SDS_P2;PMS_P1;PMS_P2;Temp;Humidity;BMP_temperature;BMP_pressure;BME280_temperature;BME280_humidity;BME280_pressure;Samples;Min_cycle;Max_cycle;Signal;HPM_P1;HPM_P2
2021/07/21 00:00:10;;;;;;;15.18;9.00;;;14.10;99.90;;;;;;4975380;28;20032;-67
2021/07/21 00:02:35;;;;;;;11.00;8.47;;;14.10;99.90;;;;;;4894353;29;20374;-68
2021/07/21 00:05:09;;;;;;;9.48;7.43;;;14.10;99.90;;;;;;4893668;29;20276;-68
2021/07/21 00:07:34;;;;;;;10.57;8.20;;;14.00;99.90;;;;;;4894343;29;20039;-72
2021/07/21 00:10:02;;;;;;;9.65;7.30;;;14.00;99.90;;;;;;4895320;29;20465;-82
2021/07/21 00:15:14;;;;;;;9.02;7.65;;;14.00;99.90;;;;;;4897022;29;20416;-71
2021/07/21 00:17:39;;;;;;;8.95;6.93;;;13.90;99.90;;;;;;4961884;28;20130;-68
2021/07/21 00:20:09;;;;;;;11.55;7.97;;;13.90;99.90;;;;;;4897335;29;20056;-68
2021/07/21 00:22:38;;;;;;;8.85;7.00;;;13.90;99.90;;;;;;4897270;29;20032;-73
2021/07/21 00:25:06;;;;;;;9.80;7.70;;;13.90;99.90;;;;;;4961713;28;20382;-73
2021/07/21 00:27:33;;;;;;;10.68;8.25;;;13.90;99.90;;;;;;4896816;29;20533;-68
2021/07/21 00:29:58;;;;;;;10.55;7.55;;;13.90;99.90;;;;;;4897216;28;20047;-67
2021/07/21 00:32:24;;;;;;;10.90;8.13;;;13.90;99.90;;;;;;4896186;29;20493;-68
2021/07/21 00:34:49;;;;;;;8.95;7.47;;;13.80;99.90;;;;;;4896964;28;20381;-69
2021/07/21 00:37:15;;;;;;;10.35;8.23;;;13.80;99.90;;;;;;4896774;29;20404;-77
2021/07/21 00:39:40;;;;;;;14.63;8.63;;;13.70;99.90;;;;;;4896431;29;20536;-70
2021/07/21 00:42:06;;;;;;;10.40;8.38;;;13.80;99.90;;;;;;4897149;29;20029;-69
2021/07/21 00:44:32;;;;;;;10.38;8.07;;;13.70;99.90;;;;;;4896611;28;20429;-70
2021/07/21 00:46:58;;;;;;;10.77;8.23;;;13.70;99.90;;;;;;4977365;28;20080;-72
2021/07/21 00:49:25;;;;;;;9.80;8.07;;;13.70;99.90;;;;;;4896635;29;20091;-72
2021/07/21 00:51:54;;;;;;;11.00;7.88;;;13.70;99.90;;;;;;4896860;29;20383;-67
2021/07/21 00:54:23;;;;;;;9.13;7.85;;;13.70;99.90;;;;;;4895559;29;20049;-71
2021/07/21 00:56:51;;;;;;;9.75;8.18;;;13.70;99.90;;;;;;4896776;29;20025;-68
2021/07/21 00:59:17;;;;;;;9.07;7.65;;;13.70;99.90;;;;;;4961229;28;20485;-77
2021/07/21 01:01:43;;;;;;;11.43;8.27;;;13.60;99.90;;;;;;4960847;28;20393;-68
2021/07/21 01:04:08;;;;;;;11.77;7.95;;;13.60;99.90;;;;;;4896380;29;20025;-68
2021/07/21 01:06:34;;;;;;;9.52;7.60;;;13.60;99.90;;;;;;4896199;29;20036;-74
2021/07/21 01:09:00;;;;;;;9.32;7.53;;;13.60;99.90;;;;;;4896681;29;20103;-79
2021/07/21 01:11:45;;;;;;;9.63;8.00;;;13.60;99.90;;;;;;4896329;29;20021;-74
2021/07/21 01:14:48;;;;;;;11.77;8.68;;;13.60;99.90;;;;;;4895659;29;20087;-79
2021/07/21 01:17:19;;;;;;;11.38;8.90;;;13.50;99.90;;;;;;4896078;29;20059;-74
2021/07/21 01:20:05;;;;;;;11.40;8.73;;;13.50;99.90;;;;;;4896407;29;20032;-67
2021/07/21 01:22:36;;;;;;;9.00;7.72;;;13.50;99.90;;;;;;4894609;29;20029;-68
2021/07/21 01:25:17;;;;;;;10.48;8.50;;;13.50;99.90;;;;;;4896599;29;20028;-68
2021/07/21 01:27:54;;;;;;;12.95;9.30;;;13.50;99.90;;;;;;4895684;29;20029;-67
2021/07/21 01:30:29;;;;;;;11.80;9.27;;;13.40;99.90;;;;;;4896121;29;20020;-69
2021/07/21 01:33:00;;;;;;;13.00;9.70;;;13.40;99.90;;;;;;4896385;28;20032;-67
2021/07/21 01:35:36;;;;;;;12.27;9.60;;;13.40;99.90;;;;;;4895449;28;20477;-67
2021/07/21 01:38:08;;;;;;;12.15;8.93;;;13.40;99.90;;;;;;4896407;29;20044;-72
2021/07/21 01:40:43;;;;;;;12.68;9.45;;;13.40;99.90;;;;;;4896398;29;20039;-67
2021/07/21 01:43:14;;;;;;;13.40;9.77;;;13.40;99.90;;;;;;4895285;28;20032;-70
2021/07/21 01:45:45;;;;;;;15.38;10.30;;;13.40;99.90;;;;;;4960935;28;20020;-70
2021/07/21 01:48:11;;;;;;;15.05;9.85;;;13.30;99.90;;;;;;4895898;29;20021;-67
2021/07/21 01:50:37;;;;;;;13.80;9.75;;;13.30;99.90;;;;;;4895326;29;20064;-67
2021/07/21 01:53:03;;;;;;;13.18;9.88;;;13.30;99.90;;;;;;4896027;29;20167;-68
2021/07/21 01:55:30;;;;;;;11.48;9.15;;;13.30;99.90;;;;;;4895821;28;20131;-67
2021/07/21 01:57:57;;;;;;;12.70;8.40;;;13.30;99.90;;;;;;4895394;29;20033;-72
2021/07/21 02:00:24;;;;;;;12.93;9.45;;;13.30;99.90;;;;;;4895557;29;20030;-69
2021/07/21 02:02:54;;;;;;;10.77;8.65;;;13.30;99.90;;;;;;4959836;28;20501;-67
2021/07/21 02:05:22;;;;;;;13.70;8.95;;;13.20;99.90;;;;;;4895774;28;20028;-67
2021/07/21 02:07:49;;;;;;;15.25;9.15;;;13.20;99.90;;;;;;4895814;29;20021;-67
2021/07/21 02:10:22;;;;;;;11.32;9.05;;;13.20;99.90;;;;;;4894943;29;20033;-68
2021/07/21 02:12:54;;;;;;;11.15;9.13;;;13.20;99.90;;;;;;4895701;29;20036;-74
2021/07/21 02:15:20;;;;;;;11.43;8.80;;;13.20;99.90;;;;;;4895479;29;20053;-68
2021/07/21 02:17:46;;;;;;;10.82;8.40;;;13.10;99.90;;;;;;4895140;28;20040;-70
2021/07/21 02:20:12;;;;;;;11.48;8.43;;;13.20;99.90;;;;;;4895292;29;20086;-78
2021/07/21 02:22:41;;;;;;;13.85;9.43;;;13.10;99.90;;;;;;4895519;29;20035;-67
2021/07/21 02:25:09;;;;;;;13.25;9.65;;;13.10;99.90;;;;;;4894754;29;20028;-71
2021/07/21 02:27:34;;;;;;;11.77;8.93;;;13.10;99.90;;;;;;4895760;28;20028;-67
2021/07/21 02:30:00;;;;;;;13.20;9.15;;;13.10;99.90;;;;;;4895514;29;20164;-78
2021/07/21 02:32:34;;;;;;;10.85;8.93;;;13.10;99.90;;;;;;4958955;28;20457;-67
2021/07/21 02:35:00;;;;;;;13.35;9.95;;;13.10;99.90;;;;;;4895399;29;20048;-69
2021/07/21 02:37:26;;;;;;;11.45;8.93;;;13.10;99.90;;;;;;4895129;29;20412;-70
2021/07/21 02:39:54;;;;;;;12.65;9.45;;;13.10;99.90;;;;;;4894604;29;20029;-70
2021/07/21 02:42:20;;;;;;;12.38;9.68;;;13.00;99.90;;;;;;4895149;28;20024;-68
2021/07/21 02:44:48;;;;;;;11.68;9.32;;;13.00;99.90;;;;;;4895177;29;20035;-70
2021/07/21 02:47:15;;;;;;;13.50;10.32;;;13.00;99.90;;;;;;4894260;29;20031;-79
2021/07/21 02:49:41;;;;;;;12.77;9.90;;;13.00;99.90;;;;;;4895500;29;20108;-72
2021/07/21 02:52:22;;;;;;;10.65;9.23;;;13.00;99.90;;;;;;4894525;29;20103;-68
2021/07/21 02:55:07;;;;;;;12.40;9.10;;;13.00;99.90;;;;;;4959612;28;20048;-69
2021/07/21 02:57:55;;;;;;;13.32;9.68;;;13.00;99.90;;;;;;4895159;29;20068;-68
2021/07/21 03:00:28;;;;;;;12.02;9.20;;;13.00;99.90;;;;;;4894140;29;20052;-67
2021/07/21 03:02:54;;;;;;;11.55;9.10;;;12.90;99.90;;;;;;4895257;28;20381;-67
2021/07/21 03:05:23;;;;;;;13.05;10.10;;;12.90;99.90;;;;;;4894891;28;20027;-68
2021/07/21 03:07:52;;;;;;;12.63;9.43;;;12.90;99.90;;;;;;4894391;29;20024;-71
2021/07/21 03:10:18;;;;;;;12.05;9.38;;;12.90;99.90;;;;;;4894806;29;20083;-68
2021/07/21 03:12:51;;;;;;;12.45;9.38;;;12.90;99.90;;;;;;4894928;29;20389;-69
2021/07/21 03:15:17;;;;;;;14.38;10.57;;;12.90;99.90;;;;;;4894215;28;20549;-68
2021/07/21 03:17:46;;;;;;;15.27;9.65;;;12.90;99.90;;;;;;4894674;29;20076;-68
2021/07/21 03:20:15;;;;;;;12.15;10.25;;;12.90;99.90;;;;;;4893989;29;20017;-67
2021/07/21 03:22:43;;;;;;;13.57;10.07;;;12.90;99.90;;;;;;4894901;28;20029;-67
2021/07/21 03:25:10;;;;;;;14.05;10.02;;;12.90;99.90;;;;;;4959008;28;20021;-74
2021/07/21 03:27:38;;;;;;;12.40;10.10;;;12.90;99.90;;;;;;4894233;29;20031;-67
2021/07/21 03:30:11;;;;;;;13.23;10.43;;;12.90;99.90;;;;;;4959352;28;20028;-68
2021/07/21 03:32:39;;;;;;;13.68;10.27;;;12.90;99.90;;;;;;4894818;29;20033;-67
2021/07/21 03:35:07;;;;;;;14.73;10.93;;;12.90;99.90;;;;;;4958816;28;20040;-68
2021/07/21 03:37:34;;;;;;;11.90;9.80;;;12.90;99.90;;;;;;4895051;28;20035;-68
2021/07/21 03:40:05;;;;;;;14.30;11.23;;;12.90;99.90;;;;;;4959631;28;20031;-77
2021/07/21 03:42:33;;;;;;;13.63;10.43;;;12.90;99.90;;;;;;4893901;29;20056;-83
2021/07/21 03:45:02;;;;;;;12.40;10.38;;;12.90;99.90;;;;;;4895501;29;20102;-76
2021/07/21 03:47:28;;;;;;;14.25;10.32;;;12.90;99.90;;;;;;4897626;29;20028;-78
2021/07/21 03:49:54;;;;;;;14.27;10.95;;;12.90;99.90;;;;;;4897185;29;20039;-68
2021/07/21 03:52:20;;;;;;;13.65;10.55;;;12.90;99.90;;;;;;4897785;28;20048;-68
2021/07/21 03:54:47;;;;;;;13.05;10.65;;;12.90;99.90;;;;;;4897544;29;20048;-77
2021/07/21 03:57:16;;;;;;;14.73;10.82;;;12.90;99.90;;;;;;4961767;28;20452;-83
2021/07/21 03:59:42;;;;;;;14.68;11.02;;;13.00;99.90;;;;;;4897703;29;20040;-75
2021/07/21 04:02:08;;;;;;;14.52;10.88;;;13.00;99.90;;;;;;4962463;28;20032;-68
2021/07/21 04:04:38;;;;;;;13.60;10.27;;;13.00;99.90;;;;;;4896954;29;20031;-72
2021/07/21 04:07:04;;;;;;;14.35;10.63;;;13.00;99.90;;;;;;4962633;28;20024;-70
2021/07/21 04:09:32;;;;;;;12.00;10.15;;;13.00;99.90;;;;;;4896507;29;20032;-69
2021/07/21 04:12:00;;;;;;;12.95;11.20;;;13.00;99.90;;;;;;4897570;29;20021;-69
2021/07/21 04:14:27;;;;;;;13.02;10.65;;;13.00;99.90;;;;;;4897096;29;20029;-70
2021/07/21 04:16:54;;;;;;;12.63;10.43;;;13.00;99.90;;;;;;4961469;28;20493;-72
2021/07/21 04:19:22;;;;;;;13.05;10.70;;;13.10;99.90;;;;;;4896984;29;20071;-74
2021/07/21 04:21:50;;;;;;;13.73;11.57;;;13.10;99.90;;;;;;4897554;29;20033;-68
2021/07/21 04:24:17;;;;;;;14.35;11.68;;;13.10;99.90;;;;;;4896288;29;20082;-76
2021/07/21 04:26:44;;;;;;;14.07;11.25;;;13.10;99.90;;;;;;4897504;28;20025;-72
2021/07/21 04:29:32;;;;;;;17.70;12.40;;;13.20;99.90;;;;;;4896982;29;20104;-75
2021/07/21 04:31:59;;;;;;;14.65;11.48;;;13.20;99.90;;;;;;4896789;29;20023;-67
2021/07/21 04:34:26;;;;;;;15.85;11.57;;;13.20;99.90;;;;;;4887564;29;20036;-67
2021/07/21 04:36:54;;;;;;;13.95;11.45;;;13.30;99.90;;;;;;4893398;28;20033;-67
2021/07/21 04:39:20;;;;;;;13.88;11.75;;;13.30;99.90;;;;;;4880999;29;20032;-68
2021/07/21 04:41:51;;;;;;;14.15;11.65;;;13.30;99.90;;;;;;4961817;28;20040;-67
2021/07/21 04:44:17;;;;;;;15.88;11.60;;;13.40;99.90;;;;;;4896541;29;20021;-69
2021/07/21 04:46:43;;;;;;;15.07;11.75;;;13.40;99.90;;;;;;4961512;28;20440;-74
2021/07/21 04:49:11;;;;;;;16.02;12.68;;;13.50;99.90;;;;;;4896635;29;20047;-68
2021/07/21 04:51:38;;;;;;;14.60;11.57;;;13.50;99.90;;;;;;4891848;29;20028;-75
2021/07/21 04:54:05;;;;;;;15.88;12.48;;;13.60;99.90;;;;;;4878059;29;20132;-77
2021/07/21 04:56:32;;;;;;;15.15;12.13;;;13.70;99.90;;;;;;4877027;28;20037;-75
2021/07/21 04:58:57;;;;;;;19.38;11.98;;;13.80;99.90;;;;;;4877622;28;20141;-73
2021/07/21 05:01:23;;;;;;;15.30;11.68;;;13.90;99.90;;;;;;4883933;29;20104;-71
2021/07/21 05:03:49;;;;;;;13.90;11.50;;;14.00;99.90;;;;;;4884653;28;20397;-70
2021/07/21 05:06:15;;;;;;;13.65;11.93;;;14.20;99.90;;;;;;4877337;29;20077;-71
2021/07/21 05:08:40;;;;;;;17.13;13.25;;;14.40;99.90;;;;;;4878269;28;20037;-74
2021/07/21 05:11:06;;;;;;;15.90;12.05;;;14.50;99.90;;;;;;4878989;28;20037;-71
2021/07/21 05:13:36;;;;;;;11.93;10.68;;;14.70;99.90;;;;;;4885018;29;20033;-68
2021/07/21 05:16:02;;;;;;;13.18;11.75;;;14.80;99.90;;;;;;4888868;29;20029;-67
2021/07/21 05:18:27;;;;;;;13.68;11.82;;;15.00;99.90;;;;;;4953493;28;20083;-74
2021/07/21 05:20:53;;;;;;;14.85;11.63;;;15.20;99.90;;;;;;4888643;28;20024;-72
2021/07/21 05:23:19;;;;;;;14.77;11.50;;;15.40;99.90;;;;;;4893446;29;20495;-71
2021/07/21 05:25:45;;;;;;;16.85;12.90;;;15.60;99.90;;;;;;4896361;29;20056;-68
2021/07/21 05:28:11;;;;;;;14.05;12.38;;;15.70;99.90;;;;;;4882697;29;20470;-73
2021/07/21 05:30:37;;;;;;;15.95;12.82;;;15.80;99.90;;;;;;4891062;29;20029;-67
2021/07/21 05:33:03;;;;;;;15.60;11.98;;;16.00;99.90;;;;;;4882314;28;20581;-68
2021/07/21 05:35:29;;;;;;;17.92;13.07;;;16.10;99.90;;;;;;4973600;28;20048;-68
2021/07/21 05:37:55;;;;;;;15.10;11.98;;;16.20;99.90;;;;;;4876682;29;20075;-67
2021/07/21 05:40:21;;;;;;;15.95;12.57;;;16.40;99.90;;;;;;4876501;29;20036;-67
2021/07/21 05:42:47;;;;;;;15.23;13.00;;;16.50;99.90;;;;;;4940523;29;20029;-69
2021/07/21 05:45:13;;;;;;;17.02;13.07;;;16.60;99.90;;;;;;4882615;29;20021;-67
2021/07/21 05:47:38;;;;;;;16.52;12.65;;;16.80;99.90;;;;;;4890592;29;20091;-68
2021/07/21 05:50:06;;;;;;;17.30;13.93;;;16.90;99.90;;;;;;4947973;28;20087;-68
2021/07/21 05:52:31;;;;;;;16.83;13.25;;;16.90;99.90;;;;;;4954119;28;20481;-68
2021/07/21 05:54:57;;;;;;;18.30;12.43;;;17.00;99.90;;;;;;4893006;29;20138;-67
2021/07/21 05:57:24;;;;;;;13.60;12.18;;;17.20;99.90;;;;;;4883059;29;20064;-67
2021/07/21 05:59:50;;;;;;;14.73;12.25;;;17.30;99.90;;;;;;4883343;29;20021;-69
2021/07/21 06:02:16;;;;;;;13.20;11.63;;;17.50;99.90;;;;;;4880315;29;20037;-72
2021/07/21 06:04:41;;;;;;;16.05;12.25;;;17.60;99.90;;;;;;4894160;29;20043;-70
2021/07/21 06:07:08;;;;;;;18.58;12.70;;;17.70;99.90;;;;;;4959907;28;20063;-68
2021/07/21 06:09:34;;;;;;;17.40;13.00;;;17.80;99.90;;;;;;4894399;29;20024;-67
2021/07/21 06:12:00;;;;;;;17.08;13.40;;;17.90;99.90;;;;;;4895336;29;20021;-68
2021/07/21 06:14:26;;;;;;;14.10;12.00;;;18.00;99.90;;;;;;4959690;28;20532;-68
2021/07/21 06:16:52;;;;;;;17.38;12.90;;;18.10;99.90;;;;;;4894830;29;20028;-68
2021/07/21 06:19:18;;;;;;;14.82;12.25;;;18.10;99.90;;;;;;4957512;28;20556;-69
2021/07/21 06:21:44;;;;;;;16.83;13.38;;;18.20;99.90;;;;;;4891069;29;20121;-72
2021/07/21 06:24:10;;;;;;;15.45;12.60;;;18.20;99.90;;;;;;4880718;28;20021;-68
2021/07/21 06:26:36;;;;;;;17.05;13.32;;;18.30;99.90;;;;;;4893517;29;20025;-68
2021/07/21 06:29:02;;;;;;;15.15;12.63;;;18.40;99.90;;;;;;4876103;29;20033;-68
2021/07/21 06:31:27;;;;;;;18.67;12.88;;;18.40;99.90;;;;;;4877360;29;20029;-68
2021/07/21 06:33:53;;;;;;;18.85;12.98;;;18.50;99.90;;;;;;4959553;28;20032;-69
2021/07/21 06:36:18;;;;;;;14.98;12.25;;;18.50;99.90;;;;;;4894772;29;20120;-76
2021/07/21 06:38:44;;;;;;;17.73;12.85;;;18.60;99.90;;;;;;4890334;29;20052;-69
2021/07/21 06:41:13;;;;;;;17.02;13.55;;;18.60;99.90;;;;;;4955266;28;20477;-80
2021/07/21 06:43:41;;;;;;;15.85;12.52;;;18.60;99.90;;;;;;4942852;28;20135;-78
2021/07/21 06:46:06;;;;;;;20.20;12.98;;;18.70;99.90;;;;;;4959220;28;20092;-82
2021/07/21 06:48:32;;;;;;;17.50;12.73;;;18.80;99.90;;;;;;4893861;29;20406;-74
2021/07/21 06:50:58;;;;;;;15.10;12.00;;;18.80;99.90;;;;;;4894525;29;20099;-76
2021/07/21 06:53:24;;;;;;;17.15;12.85;;;19.00;99.90;;;;;;4892698;28;20028;-74
2021/07/21 06:55:50;;;;;;;16.95;12.93;;;19.10;99.90;;;;;;4958924;28;20032;-72
2021/07/21 06:58:16;;;;;;;14.68;13.13;;;19.10;99.90;;;;;;4893676;28;20512;-78
2021/07/21 07:00:42;;;;;;;20.02;14.57;;;19.20;99.90;;;;;;4894598;29;20027;-72
2021/07/21 07:03:07;;;;;;;23.00;14.40;;;19.30;99.90;;;;;;4959148;28;20020;-75
2021/07/21 07:05:33;;;;;;;15.65;13.15;;;19.40;99.90;;;;;;4958332;28;20458;-80
2021/07/21 07:07:59;;;;;;;18.15;14.32;;;19.50;99.90;;;;;;4959587;28;20103;-78
2021/07/21 07:10:25;;;;;;;18.17;14.13;;;19.60;99.90;;;;;;4958941;28;20029;-73
2021/07/21 07:12:50;;;;;;;18.55;14.50;;;19.60;99.90;;;;;;4893924;29;20028;-73
2021/07/21 07:15:16;;;;;;;16.48;12.90;;;19.70;99.90;;;;;;4940984;28;20060;-71
2021/07/21 07:17:42;;;;;;;15.98;13.35;;;19.70;99.90;;;;;;4875884;29;20490;-71
2021/07/21 07:20:08;;;;;;;13.82;11.55;;;19.80;99.90;;;;;;4940067;28;20040;-72
2021/07/21 07:22:34;;;;;;;18.75;14.00;;;19.80;99.90;;;;;;4950149;28;20025;-72
2021/07/21 07:25:02;;;;;;;16.52;13.35;;;19.90;99.90;;;;;;4916519;28;20412;-74
2021/07/21 07:27:29;;;;;;;17.88;12.65;;;20.00;99.90;;;;;;4877028;29;20625;-76
2021/07/21 07:29:55;;;;;;;14.80;12.05;;;20.10;99.90;;;;;;4878806;29;20040;-71
2021/07/21 07:32:20;;;;;;;18.35;13.32;;;20.10;99.90;;;;;;4877345;29;20025;-73
2021/07/21 07:34:46;;;;;;;14.57;11.95;;;20.20;99.90;;;;;;4878400;29;20058;-71
2021/07/21 07:37:12;;;;;;;16.30;11.90;;;20.30;99.90;;;;;;4883995;29;20103;-71
2021/07/21 07:39:38;;;;;;;16.80;12.18;;;20.30;99.90;;;;;;4962475;28;20029;-72
2021/07/21 07:42:04;;;;;;;17.85;12.30;;;20.40;99.90;;;;;;4896892;29;20036;-72
2021/07/21 07:44:30;;;;;;;14.50;12.52;;;20.50;99.90;;;;;;4946454;28;20080;-71
2021/07/21 07:46:56;;;;;;;17.20;12.63;;;20.60;99.90;;;;;;4878233;29;20054;-71
2021/07/21 07:49:22;;;;;;;15.77;11.82;;;20.70;99.90;;;;;;4877356;29;20072;-73
2021/07/21 07:51:48;;;;;;;16.15;11.88;;;20.70;99.90;;;;;;4891942;29;20068;-70
2021/07/21 07:54:15;;;;;;;17.42;12.60;;;20.80;99.90;;;;;;4892714;29;20420;-69
2021/07/21 07:56:41;;;;;;;17.50;13.40;;;20.90;99.90;;;;;;4893702;29;20064;-71
2021/07/21 07:59:07;;;;;;;13.73;12.20;;;21.00;99.90;;;;;;4942343;29;20064;-80
2021/07/21 08:01:32;;;;;;;18.35;12.85;;;21.10;99.90;;;;;;4877729;29;20029;-71
2021/07/21 08:03:58;;;;;;;18.48;13.52;;;21.20;99.90;;;;;;4878504;29;20044;-71
2021/07/21 08:06:24;;;;;;;15.65;13.50;;;21.30;99.90;;;;;;4879398;29;20029;-78
2021/07/21 08:08:49;;;;;;;13.70;11.48;;;21.40;99.90;;;;;;4887276;29;20043;-74
2021/07/21 08:11:16;;;;;;;17.73;12.93;;;21.50;99.90;;;;;;4886348;29;20023;-77
2021/07/21 08:13:42;;;;;;;14.55;12.05;;;21.40;99.90;;;;;;4896140;29;20028;-71
2021/07/21 08:16:08;;;;;;;16.20;13.25;;;21.30;99.90;;;;;;4895670;29;20021;-71
2021/07/21 08:18:34;;;;;;;16.40;12.95;;;21.20;99.90;;;;;;4878198;28;20533;-82
2021/07/21 08:21:00;;;;;;;17.40;13.00;;;20.90;99.90;;;;;;4877248;29;20028;-72
2021/07/21 08:23:26;;;;;;;15.45;12.40;;;20.70;99.90;;;;;;4877998;28;20024;-74
2021/07/21 08:25:51;;;;;;;16.73;12.88;;;20.50;99.90;;;;;;4896136;29;20557;-71
2021/07/21 08:28:18;;;;;;;16.80;13.35;;;20.40;99.90;;;;;;4955287;28;20477;-70
2021/07/21 08:30:48;;;;;;;15.77;13.20;;;20.30;99.90;;;;;;4877330;29;20026;-81
2021/07/21 08:33:14;;;;;;;15.75;12.95;;;20.30;99.90;;;;;;4941981;29;20029;-73
2021/07/21 08:35:40;;;;;;;17.17;13.77;;;20.20;99.90;;;;;;4941825;29;20050;-75
2021/07/21 08:38:09;;;;;;;15.93;12.90;;;20.20;99.90;;;;;;4942250;29;20394;-74
2021/07/21 08:40:36;;;;;;;20.50;13.35;;;20.30;99.90;;;;;;4941584;29;20072;-71
2021/07/21 08:43:04;;;;;;;17.92;12.30;;;20.20;99.90;;;;;;4877997;29;20434;-71
2021/07/21 08:45:30;;;;;;;17.73;12.00;;;20.20;99.90;;;;;;4888483;29;20020;-75
2021/07/21 08:47:55;;;;;;;14.70;12.02;;;20.20;99.90;;;;;;4903776;29;20028;-74
2021/07/21 08:50:21;;;;;;;14.20;11.82;;;20.30;99.90;;;;;;4895217;29;20520;-82
2021/07/21 08:52:50;;;;;;;13.07;11.30;;;20.30;99.90;;;;;;4896424;28;20028;-76
2021/07/21 08:55:16;;;;;;;13.32;11.05;;;20.40;99.90;;;;;;4896089;28;20054;-74
2021/07/21 08:57:42;;;;;;;16.42;10.52;;;20.50;99.90;;;;;;4895640;29;20037;-71
2021/07/21 09:00:09;;;;;;;14.27;10.45;;;20.50;99.90;;;;;;4958605;28;20032;-70
2021/07/21 09:02:37;;;;;;;12.00;9.95;;;20.60;99.90;;;;;;4880371;29;20033;-70
2021/07/21 09:05:03;;;;;;;13.82;9.13;;;20.70;99.90;;;;;;4941951;28;20041;-71
2021/07/21 09:07:29;;;;;;;11.05;9.55;;;20.80;99.90;;;;;;4877325;29;20021;-70
2021/07/21 09:09:54;;;;;;;14.02;9.90;;;20.70;99.90;;;;;;4876753;29;20040;-70
2021/07/21 09:12:20;;;;;;;11.85;9.25;;;20.80;99.90;;;;;;4876789;29;20080;-71
2021/07/21 09:14:46;;;;;;;10.82;9.32;;;20.80;99.90;;;;;;4877271;29;20485;-70
2021/07/21 09:17:17;;;;;;;11.77;8.70;;;20.90;99.90;;;;;;4878214;29;20150;-71
2021/07/21 09:19:48;;;;;;;10.57;8.60;;;20.90;99.90;;;;;;4952852;28;20115;-70
2021/07/21 09:22:15;;;;;;;;;;;20.90;99.90;;;;;;4877204;29;20108;-72
2021/07/21 09:24:41;;;;;;;14.15;9.23;;;21.00;99.90;;;;;;4947666;28;20287;-72
2021/07/21 09:27:06;;;;;;;11.80;8.90;;;21.00;99.90;;;;;;4894375;29;20568;-70
2021/07/21 09:29:32;;;;;;;12.32;8.75;;;21.10;99.90;;;;;;4880470;29;20108;-71
2021/07/21 09:32:02;;;;;;;12.02;8.40;;;21.20;99.90;;;;;;4876559;28;20427;-73
2021/07/21 09:34:29;;;;;;;12.33;9.43;;;21.20;99.90;;;;;;4879772;28;20037;-70
2021/07/21 09:37:24;;;;;;;11.25;7.93;;;21.30;99.90;;;;;;4959910;28;20039;-69
2021/07/21 09:39:50;;;;;;;16.38;7.72;;;21.40;99.90;;;;;;4944638;28;20058;-70
2021/07/21 09:42:17;;;;;;;9.93;7.70;;;21.40;99.90;;;;;;4922648;28;20032;-73
2021/07/21 09:44:45;;;;;;;9.48;7.22;;;21.50;99.90;;;;;;4888811;29;20067;-70
2021/07/21 09:47:14;;;;;;;8.57;6.53;;;21.50;99.90;;;;;;4879164;29;20490;-71
2021/07/21 09:49:41;;;;;;;7.57;5.88;;;21.50;99.90;;;;;;4877431;28;20025;-74
2021/07/21 09:52:21;;;;;;;7.07;6.10;;;21.60;99.90;;;;;;4876936;28;20032;-70
2021/07/21 09:55:06;;;;;;;8.90;7.05;;;21.70;99.60;;;;;;4877240;28;20056;-75
2021/07/21 09:57:33;;;;;;;7.90;6.63;;;21.80;98.20;;;;;;4877172;28;20033;-71
2021/07/21 09:59:59;;;;;;;7.93;6.30;;;21.80;98.20;;;;;;4940742;29;20033;-77
2021/07/21 10:02:25;;;;;;;7.97;6.30;;;21.80;98.50;;;;;;4877054;28;20027;-73
2021/07/21 10:04:51;;;;;;;8.48;7.07;;;22.00;98.00;;;;;;4876938;29;20040;-71
2021/07/21 10:07:49;;;;;;;7.03;5.93;;;22.10;97.90;;;;;;4876326;28;20025;-75
2021/07/21 10:10:18;;;;;;;7.95;6.00;;;22.30;98.90;;;;;;4876952;28;20029;-80
2021/07/21 10:12:56;;;;;;;9.70;6.78;;;22.70;98.00;;;;;;4877241;28;20491;-88
2021/07/21 10:15:21;;;;;;;7.60;6.55;;;23.10;97.20;;;;;;4876278;28;20032;-71
2021/07/21 10:18:06;;;;;;;8.45;6.95;;;23.50;94.90;;;;;;4876805;28;20025;-71
2021/07/21 10:20:32;;;;;;;7.43;6.53;;;23.70;93.80;;;;;;4876234;28;20456;-82
2021/07/21 10:22:58;;;;;;;9.75;6.40;;;23.80;94.00;;;;;;4877061;28;20029;-75
2021/07/21 10:25:24;;;;;;;8.50;7.30;;;24.00;94.30;;;;;;4940850;29;20029;-74
2021/07/21 10:27:50;;;;;;;11.15;7.10;;;24.00;93.60;;;;;;4876640;28;20501;-83
2021/07/21 10:30:16;;;;;;;9.15;7.13;;;24.10;93.70;;;;;;4940483;29;20033;-71
2021/07/21 10:32:43;;;;;;;12.10;7.78;;;24.10;93.10;;;;;;4940855;29;20021;-71
2021/07/21 10:35:10;;;;;;;12.27;8.27;;;24.30;92.10;;;;;;4875845;28;20029;-70
2021/07/21 10:37:37;;;;;;;11.30;7.72;;;24.30;90.90;;;;;;4876804;28;20148;-71
2021/07/21 10:40:07;;;;;;;8.30;7.20;;;24.30;90.80;;;;;;4876687;28;20044;-74
2021/07/21 10:42:33;;;;;;;7.57;6.70;;;24.10;91.40;;;;;;4876084;28;20025;-72
2021/07/21 10:45:15;;;;;;;8.48;6.70;;;24.00;92.20;;;;;;4876503;28;20485;-74
2021/07/21 10:47:48;;;;;;;10.30;8.18;;;23.90;91.80;;;;;;4876653;28;20112;-75
2021/07/21 10:50:58;;;;;;;10.48;7.40;;;23.90;92.20;;;;;;4875615;28;20032;-71
2021/07/21 10:53:41;;;;;;;9.77;7.68;;;23.90;92.20;;;;;;4875990;28;20025;-72
2021/07/21 10:59:13;;;;;;;9.60;7.45;;;24.10;92.50;;;;;;4876532;29;20052;-71
2021/07/21 11:01:40;;;;;;;10.63;7.63;;;24.20;91.40;;;;;;4940755;29;20065;-72
2021/07/21 11:04:06;;;;;;;9.27;7.95;;;24.30;91.50;;;;;;4875782;28;20108;-70
2021/07/21 11:06:39;;;;;;;9.63;7.55;;;24.40;91.40;;;;;;4876229;28;20112;-71
2021/07/21 11:09:25;;;;;;;14.45;7.65;;;24.40;91.30;;;;;;4876499;28;20045;-74
2021/07/21 11:11:59;;;;;;;9.25;7.43;;;24.30;91.40;;;;;;4940402;29;20497;-71
2021/07/21 11:14:27;;;;;;;8.38;7.38;;;24.20;91.70;;;;;;4940193;29;20021;-70
2021/07/21 11:16:55;;;;;;;8.48;6.85;;;24.40;92.40;;;;;;4939902;29;20029;-72
2021/07/21 11:19:43;;;;;;;8.50;7.47;;;24.70;92.30;;;;;;4876075;28;20048;-72
2021/07/21 11:22:11;;;;;;;8.02;6.97;;;25.10;92.20;;;;;;4880651;28;20441;-87
2021/07/21 11:25:06;;;;;;;8.20;7.30;;;25.40;92.40;;;;;;4939637;29;20034;-71
2021/07/21 11:27:43;;;;;;;7.75;6.95;;;25.60;91.00;;;;;;4876369;28;20079;-89
2021/07/21 11:30:38;;;;;;;8.73;7.70;;;25.70;91.80;;;;;;4876128;28;20029;-71
2021/07/21 11:33:40;;;;;;;10.55;7.43;;;25.70;88.00;;;;;;4876107;28;20477;-73
2021/07/21 11:36:06;;;;;;;12.00;7.68;;;25.90;87.00;;;;;;4876386;28;20025;-85
2021/07/21 11:38:48;;;;;;;8.55;7.38;;;25.90;86.30;;;;;;4875283;28;20561;-74
2021/07/21 11:41:44;;;;;;;7.65;6.93;;;26.00;87.30;;;;;;4875939;28;20108;-72
2021/07/21 11:44:11;;;;;;;7.70;6.82;;;26.10;85.30;;;;;;4939849;29;20036;-71
2021/07/21 11:46:37;;;;;;;8.57;7.10;;;26.10;84.60;;;;;;4875318;29;20482;-88
2021/07/21 11:49:03;;;;;;;8.23;6.72;;;26.20;83.00;;;;;;4876053;28;20025;-71
2021/07/21 11:51:29;;;;;;;9.23;7.75;;;26.20;82.50;;;;;;4940870;28;20119;-70
2021/07/21 11:53:55;;;;;;;8.35;7.43;;;26.30;81.30;;;;;;4947436;28;20166;-75
2021/07/21 11:56:21;;;;;;;9.48;8.18;;;26.30;82.30;;;;;;4891505;29;20036;-72
2021/07/21 11:58:46;;;;;;;8.82;7.53;;;26.30;80.70;;;;;;4902725;29;20115;-78
2021/07/21 12:01:12;;;;;;;10.50;7.80;;;26.30;80.60;;;;;;4897589;29;20536;-77
2021/07/21 12:03:46;;;;;;;11.52;8.00;;;26.30;79.50;;;;;;4893893;29;20033;-84
2021/07/21 12:06:23;;;;;;;10.07;8.23;;;26.40;81.20;;;;;;4892839;28;20036;-72
2021/07/21 12:08:55;;;;;;;7.75;6.95;;;26.40;80.50;;;;;;4894628;28;20033;-77
2021/07/21 12:11:21;;;;;;;7.82;6.97;;;26.50;81.80;;;;;;4892870;29;20025;-75
2021/07/21 12:14:00;;;;;;;10.05;7.60;;;26.70;83.80;;;;;;4942794;28;20485;-73
2021/07/21 12:16:28;;;;;;;10.63;7.60;;;26.80;85.10;;;;;;4880560;28;20500;-73
2021/07/21 12:19:02;;;;;;;7.78;6.97;;;27.10;82.00;;;;;;4943892;28;20381;-84
2021/07/21 12:21:29;;;;;;;9.35;7.50;;;27.20;79.70;;;;;;4946642;28;20465;-73
2021/07/21 12:24:02;;;;;;;8.88;7.00;;;27.40;78.00;;;;;;4943399;29;20040;-75
2021/07/21 12:26:42;;;;;;;7.25;6.28;;;27.60;80.30;;;;;;4887888;28;20362;-72
2021/07/21 12:29:08;;;;;;;7.80;7.00;;;27.60;78.50;;;;;;4876704;29;20502;-75
2021/07/21 12:31:34;;;;;;;11.98;6.90;;;27.40;76.30;;;;;;4942845;29;20021;-73
2021/07/21 12:34:17;;;;;;;7.85;6.50;;;27.40;75.50;;;;;;4956521;28;20036;-72
2021/07/21 12:36:50;;;;;;;8.55;6.75;;;27.60;74.50;;;;;;4896411;29;20040;-73
2021/07/21 12:39:27;;;;;;;7.45;6.60;;;27.50;76.30;;;;;;4895694;29;20036;-73
2021/07/21 12:41:53;;;;;;;7.80;6.90;;;27.50;76.30;;;;;;4893885;29;20035;-73
2021/07/21 12:44:26;;;;;;;7.60;6.22;;;27.50;75.30;;;;;;4950609;28;20139;-83
2021/07/21 12:47:11;;;;;;;8.50;6.75;;;27.40;76.80;;;;;;4955777;28;20027;-76
2021/07/21 12:49:39;;;;;;;8.07;7.13;;;27.40;78.30;;;;;;4883194;28;20041;-72